createdAt,value
2023-11-30T00:00:40.022Z,24.43
2023-11-30T00:03:06.984Z,20.93
2023-11-30T00:05:33.290Z,25.30
2023-11-30T00:07:59.481Z,22.67
2023-11-30T00:10:25.640Z,19.53
2023-11-30T00:12:51.890Z,20.73
2023-11-30T00:15:18.100Z,22.00
2023-11-30T00:17:44.342Z,20.03
2023-11-30T00:20:12.544Z,24.97
2023-11-30T00:22:39.707Z,19.30
2023-11-30T00:25:06.972Z,23.57
2023-11-30T00:27:33.299Z,25.13
2023-11-30T00:29:59.672Z,23.17
2023-11-30T00:32:25.903Z,19.70
2023-11-30T00:34:52.258Z,25.93
2023-11-30T00:37:19.145Z,25.40
2023-11-30T00:39:45.380Z,20.53
2023-11-30T00:42:11.712Z,19.87
2023-11-30T00:44:38.065Z,22.73
2023-11-30T00:47:04.646Z,24.37
2023-11-30T00:49:30.950Z,25.87
2023-11-30T00:51:57.239Z,21.87
2023-11-30T00:54:24.200Z,27.97
2023-11-30T00:56:50.475Z,22.80
2023-11-30T00:59:16.756Z,23.27
2023-11-30T01:01:43.134Z,21.67
2023-11-30T01:04:09.604Z,25.77
2023-11-30T01:06:35.823Z,25.37
2023-11-30T01:09:02.048Z,19.50
2023-11-30T01:11:28.895Z,19.67
2023-11-30T01:13:55.141Z,21.80
2023-11-30T01:16:21.391Z,23.43
2023-11-30T01:18:47.924Z,26.17
2023-11-30T01:21:14.388Z,24.00
2023-11-30T01:23:40.650Z,22.70
2023-11-30T01:26:08.750Z,23.63
2023-11-30T01:28:35.646Z,22.77
2023-11-30T01:31:02.379Z,20.37
2023-11-30T01:33:28.804Z,26.33
2023-11-30T01:35:55.099Z,22.23
2023-11-30T01:38:21.351Z,25.47
2023-11-30T01:40:47.894Z,23.50
2023-11-30T01:43:17.004Z,22.87
2023-11-30T01:45:43.901Z,24.33
2023-11-30T01:48:11.069Z,25.77
2023-11-30T01:50:37.612Z,25.77
2023-11-30T01:53:03.893Z,27.77
2023-11-30T01:55:30.175Z,24.50
2023-11-30T01:57:57.130Z,21.83
2023-11-30T02:00:23.433Z,26.30
2023-11-30T02:02:50.350Z,26.10
2023-11-30T02:05:16.656Z,22.67
2023-11-30T02:07:42.995Z,29.90
2023-11-30T02:10:09.437Z,31.10
2023-11-30T02:12:35.416Z,25.10
2023-11-30T02:15:01.792Z,31.67
2023-11-30T02:17:28.126Z,30.00
2023-11-30T02:19:55.042Z,26.77
2023-11-30T02:22:21.769Z,26.20
2023-11-30T02:24:48.076Z,26.47
2023-11-30T02:27:14.324Z,23.77
2023-11-30T02:29:40.653Z,28.70
2023-11-30T02:32:07.285Z,24.93
2023-11-30T02:34:33.615Z,24.73
2023-11-30T02:37:00.097Z,28.53
2023-11-30T02:39:27.284Z,28.37
2023-11-30T02:41:53.635Z,26.90
2023-11-30T02:44:19.841Z,30.00
2023-11-30T02:46:45.996Z,32.47
2023-11-30T02:49:12.319Z,31.10
2023-11-30T02:51:38.509Z,27.60
2023-11-30T02:54:04.869Z,30.97
2023-11-30T02:56:38.126Z,26.60
2023-11-30T02:59:04.355Z,28.73
2023-11-30T03:01:30.600Z,33.53
2023-11-30T03:03:57.064Z,33.80
2023-11-30T03:06:23.402Z,30.13
2023-11-30T03:08:49.806Z,32.07
2023-11-30T03:11:16.048Z,30.90
2023-11-30T03:13:42.887Z,29.57
2023-11-30T03:16:09.497Z,34.07
2023-11-30T03:18:39.405Z,32.20
2023-11-30T03:21:14.601Z,31.17
2023-11-30T03:23:40.827Z,33.47
2023-11-30T03:26:07.130Z,34.03
2023-11-30T03:28:33.387Z,33.87
2023-11-30T03:31:00.249Z,32.83
2023-11-30T03:33:26.467Z,31.77
2023-11-30T03:35:52.879Z,35.53
2023-11-30T03:38:19.208Z,31.70
2023-11-30T03:40:45.387Z,32.77
2023-11-30T03:43:11.670Z,34.97
2023-11-30T03:45:37.872Z,32.83
2023-11-30T03:48:05.175Z,36.77
2023-11-30T03:50:31.468Z,33.37
2023-11-30T03:52:57.747Z,36.50
2023-11-30T03:55:24.045Z,30.53
2023-11-30T03:57:50.329Z,30.53
2023-11-30T04:00:17.011Z,31.77
2023-11-30T04:02:43.797Z,32.57
2023-11-30T04:05:11.848Z,33.47
2023-11-30T04:07:39.488Z,29.27
2023-11-30T04:10:06.559Z,36.70
2023-11-30T04:12:33.064Z,34.90
2023-11-30T04:14:59.476Z,32.57
2023-11-30T04:17:25.705Z,32.80
2023-11-30T04:19:51.969Z,39.23
2023-11-30T04:22:18.989Z,33.13
2023-11-30T04:24:45.551Z,31.23
2023-11-30T04:27:11.826Z,35.50
2023-11-30T04:29:38.054Z,32.80
2023-11-30T04:32:04.974Z,38.17
2023-11-30T04:34:31.265Z,34.70
2023-11-30T04:36:57.489Z,32.93
2023-11-30T04:39:25.032Z,34.97
2023-11-30T04:41:52.005Z,34.53
2023-11-30T04:44:23.170Z,33.33
2023-11-30T04:46:50.163Z,33.40
2023-11-30T04:49:16.321Z,31.30
2023-11-30T04:51:42.668Z,38.10
2023-11-30T04:54:09.057Z,34.87
2023-11-30T04:56:36.003Z,33.83
2023-11-30T04:59:02.476Z,32.67
2023-11-30T05:01:30.036Z,32.40
2023-11-30T05:03:57.501Z,29.47
2023-11-30T05:06:23.952Z,30.20
2023-11-30T05:08:50.201Z,33.67
2023-11-30T05:11:16.593Z,38.77
2023-11-30T05:13:43.584Z,36.40
2023-11-30T05:16:13.061Z,33.70
2023-11-30T05:18:39.323Z,34.60
2023-11-30T05:21:06.143Z,33.23
2023-11-30T05:23:32.378Z,33.43
2023-11-30T05:25:58.582Z,31.97
2023-11-30T05:28:24.886Z,35.20
2023-11-30T05:30:52.038Z,35.93
2023-11-30T05:33:18.604Z,35.37
2023-11-30T05:35:45.013Z,32.97
2023-11-30T05:38:11.251Z,34.70
2023-11-30T05:40:37.636Z,34.00
2023-11-30T05:43:03.921Z,32.60
2023-11-30T05:45:30.270Z,33.70
2023-11-30T05:47:57.299Z,31.97
2023-11-30T05:50:23.600Z,29.07
2023-11-30T05:52:49.889Z,28.70
2023-11-30T05:55:17.143Z,29.10
2023-11-30T05:57:43.429Z,27.77
2023-11-30T06:00:10.954Z,34.43
2023-11-30T06:02:37.260Z,28.60
2023-11-30T06:05:05.482Z,35.40
2023-11-30T06:07:33.637Z,29.83
2023-11-30T06:10:00.041Z,35.20
2023-11-30T06:12:26.935Z,35.93
2023-11-30T06:14:53.514Z,30.73
2023-11-30T06:17:19.749Z,32.33
2023-11-30T06:19:45.977Z,33.23
2023-11-30T06:22:13.292Z,36.03
2023-11-30T06:24:39.619Z,33.70
2023-11-30T06:27:07.628Z,35.27
2023-11-30T06:29:34.205Z,33.03
2023-11-30T06:32:00.907Z,31.17
2023-11-30T06:34:27.276Z,31.07
2023-11-30T06:36:53.538Z,28.70
2023-11-30T06:39:20.577Z,29.67
2023-11-30T06:41:47.487Z,29.80
2023-11-30T06:44:13.785Z,30.93
2023-11-30T06:46:42.780Z,32.80
2023-11-30T06:49:09.034Z,28.10
2023-11-30T06:51:35.260Z,35.97
2023-11-30T06:54:01.659Z,31.13
2023-11-30T06:56:28.560Z,29.70
2023-11-30T06:58:54.777Z,33.23
2023-11-30T07:01:23.613Z,33.87
2023-11-30T07:03:50.044Z,32.03
2023-11-30T07:06:16.549Z,30.53
2023-11-30T07:08:43.261Z,32.17
2023-11-30T07:11:11.314Z,32.27
2023-11-30T07:13:38.653Z,31.10
2023-11-30T07:16:05.792Z,32.80
2023-11-30T07:18:32.042Z,27.47
2023-11-30T07:20:58.303Z,26.80
2023-11-30T07:23:24.547Z,30.53
2023-11-30T07:25:50.836Z,29.30
2023-11-30T07:28:17.195Z,28.23
2023-11-30T07:30:44.133Z,29.30
2023-11-30T07:33:11.321Z,28.33
2023-11-30T07:35:38.155Z,30.47
2023-11-30T07:38:04.921Z,30.93
2023-11-30T07:40:32.672Z,31.70
2023-11-30T07:42:59.104Z,30.43
2023-11-30T07:45:25.511Z,30.20
2023-11-30T07:47:52.522Z,29.40
2023-11-30T07:50:18.824Z,29.47
2023-11-30T07:52:45.101Z,27.90
2023-11-30T07:55:11.397Z,27.63
2023-11-30T07:57:37.659Z,30.53
2023-11-30T08:00:05.756Z,28.80
2023-11-30T08:02:32.043Z,27.77
2023-11-30T08:04:58.962Z,26.10
2023-11-30T08:07:25.311Z,28.07
2023-11-30T08:09:51.607Z,32.77
2023-11-30T08:12:17.924Z,27.60
2023-11-30T08:14:44.212Z,25.50
2023-11-30T08:17:10.864Z,30.33
2023-11-30T08:19:37.343Z,29.43
2023-11-30T08:22:06.941Z,30.97
2023-11-30T08:24:33.396Z,32.90
2023-11-30T08:27:00.100Z,35.43
2023-11-30T08:29:26.558Z,33.73
2023-11-30T08:31:52.838Z,27.53
2023-11-30T08:34:19.098Z,27.60
2023-11-30T08:36:45.527Z,26.63
2023-11-30T08:39:12.599Z,27.00
2023-11-30T08:41:38.841Z,28.33
2023-11-30T08:44:05.487Z,25.93
2023-11-30T08:46:31.871Z,23.80
2023-11-30T08:48:58.277Z,23.60
2023-11-30T08:51:24.864Z,21.47
2023-11-30T08:53:51.584Z,23.30
2023-11-30T08:56:18.752Z,24.80
2023-11-30T08:58:45.168Z,27.63
2023-11-30T09:01:11.480Z,28.00
2023-11-30T09:03:38.114Z,24.63
2023-11-30T09:06:04.899Z,25.33
2023-11-30T09:08:31.189Z,27.40
2023-11-30T09:10:57.503Z,26.90
2023-11-30T09:13:24.418Z,27.00
2023-11-30T09:15:50.778Z,24.90
2023-11-30T09:18:17.927Z,24.20
2023-11-30T09:20:44.328Z,25.03
2023-11-30T09:23:10.646Z,24.00
2023-11-30T09:25:36.916Z,24.47
2023-11-30T09:28:03.371Z,28.97
2023-11-30T09:30:30.278Z,27.17
2023-11-30T09:32:56.556Z,34.23
2023-11-30T09:35:22.945Z,29.33
2023-11-30T09:37:49.219Z,26.10
2023-11-30T09:40:15.869Z,34.40
2023-11-30T09:42:42.196Z,31.20
2023-11-30T09:45:09.617Z,32.17
2023-11-30T09:47:36.566Z,29.60
2023-11-30T09:50:03.039Z,28.10
2023-11-30T09:52:29.352Z,25.50
2023-11-30T09:54:57.038Z,22.57
2023-11-30T09:57:23.602Z,22.13
2023-11-30T09:59:50.831Z,22.83
2023-11-30T10:02:17.620Z,19.70
2023-11-30T10:04:45.142Z,21.03
2023-11-30T10:07:11.690Z,19.47
2023-11-30T10:09:38.167Z,19.63
2023-11-30T10:12:05.280Z,17.27
2023-11-30T10:14:31.655Z,18.60
2023-11-30T10:16:59.689Z,17.90
2023-11-30T10:19:26.167Z,18.17
2023-11-30T10:21:55.367Z,15.60
2023-11-30T10:24:21.772Z,14.97
2023-11-30T10:26:51.666Z,17.43
2023-11-30T10:29:20.272Z,16.67
2023-11-30T10:31:48.131Z,16.47
2023-11-30T10:34:17.069Z,16.17
2023-11-30T10:36:43.990Z,17.50
2023-11-30T10:39:16.500Z,16.73
2023-11-30T10:41:49.272Z,17.57
2023-11-30T10:44:22.024Z,17.17
2023-11-30T10:46:49.128Z,15.73
2023-11-30T10:49:15.581Z,15.00
2023-11-30T10:51:42.277Z,14.23
2023-11-30T10:54:14.677Z,14.83
2023-11-30T10:56:41.215Z,17.87
2023-11-30T10:59:12.426Z,16.83
2023-11-30T11:01:39.026Z,15.43
2023-11-30T11:04:07.085Z,16.47
2023-11-30T11:06:33.512Z,16.10
2023-11-30T11:09:00.594Z,13.00
2023-11-30T11:11:29.220Z,18.23
2023-11-30T11:13:55.515Z,16.00
2023-11-30T11:16:33.262Z,15.07
2023-11-30T11:19:02.424Z,12.73
2023-11-30T11:21:29.833Z,12.63
2023-11-30T11:24:01.998Z,14.33
2023-11-30T11:26:28.837Z,13.80
2023-11-30T11:28:55.494Z,14.63
2023-11-30T11:31:22.436Z,13.10
2023-11-30T11:33:49.453Z,14.90
2023-11-30T11:36:15.713Z,12.90
2023-11-30T11:38:42.701Z,16.20
2023-11-30T11:41:09.027Z,13.47
2023-11-30T11:43:36.123Z,13.33
2023-11-30T11:46:02.562Z,16.27
2023-11-30T11:48:28.882Z,14.00
2023-11-30T11:50:58.942Z,13.33
2023-11-30T11:53:25.239Z,14.47
2023-11-30T11:55:51.622Z,12.90
2023-11-30T11:58:17.841Z,12.13
2023-11-30T12:00:53.504Z,11.50
2023-11-30T12:03:20.811Z,13.53
2023-11-30T12:05:48.120Z,11.17
2023-11-30T12:08:15.116Z,12.90
2023-11-30T12:10:42.838Z,12.47
2023-11-30T12:13:10.939Z,13.10
2023-11-30T12:15:37.979Z,13.67
2023-11-30T12:18:05.030Z,12.57
2023-11-30T12:20:31.678Z,14.27
2023-11-30T12:22:58.212Z,15.30
2023-11-30T12:25:25.383Z,12.53
2023-11-30T12:27:52.205Z,11.67
2023-11-30T12:30:19.134Z,10.90
2023-11-30T12:32:46.001Z,10.50
2023-11-30T12:35:13.224Z,9.93
2023-11-30T12:37:39.948Z,12.40
2023-11-30T12:40:09.236Z,10.90
2023-11-30T12:42:36.456Z,10.50
2023-11-30T12:45:03.946Z,10.20
2023-11-30T12:47:30.337Z,11.03
2023-11-30T12:49:56.641Z,11.27
2023-11-30T12:52:23.701Z,10.70
2023-11-30T12:54:51.830Z,10.57
2023-11-30T12:57:18.407Z,11.07
2023-11-30T12:59:44.753Z,13.30
2023-11-30T13:02:11.289Z,11.07
2023-11-30T13:04:39.308Z,11.47
2023-11-30T13:07:05.877Z,10.20
2023-11-30T13:09:34.970Z,10.77
2023-11-30T13:12:01.530Z,16.27
2023-11-30T13:14:28.651Z,13.53
2023-11-30T13:16:55.118Z,9.77
2023-11-30T13:19:24.691Z,10.03
2023-11-30T13:21:52.099Z,11.13
2023-11-30T13:24:18.997Z,9.83
2023-11-30T13:26:47.562Z,10.23
2023-11-30T13:29:13.815Z,12.90
2023-11-30T13:31:40.807Z,13.10
2023-11-30T13:34:07.232Z,16.13
2023-11-30T13:36:33.580Z,15.50
2023-11-30T13:39:00.819Z,15.00
2023-11-30T13:41:27.237Z,15.27
2023-11-30T13:43:54.299Z,11.13
2023-11-30T13:46:21.444Z,11.23
2023-11-30T13:48:47.829Z,12.07
2023-11-30T13:51:14.989Z,10.43
2023-11-30T13:53:41.607Z,7.70
2023-11-30T13:56:09.058Z,8.63
2023-11-30T13:58:35.502Z,12.13
2023-11-30T14:01:03.265Z,13.40
2023-11-30T14:03:29.912Z,10.67
2023-11-30T14:05:57.013Z,8.07
2023-11-30T14:08:23.341Z,9.37
2023-11-30T14:10:49.644Z,7.47
2023-11-30T14:13:16.275Z,14.30
2023-11-30T14:15:42.702Z,9.97
2023-11-30T14:18:09.702Z,10.77
2023-11-30T14:20:37.619Z,9.43
2023-11-30T14:23:05.542Z,9.50
2023-11-30T14:25:33.879Z,8.30
2023-11-30T14:28:05.304Z,11.87
2023-11-30T14:30:37.799Z,9.63
2023-11-30T14:33:04.215Z,12.10
2023-11-30T14:35:32.132Z,9.87
2023-11-30T14:37:58.436Z,9.77
2023-11-30T14:40:25.004Z,11.73
2023-11-30T14:42:51.510Z,11.00
2023-11-30T14:45:17.940Z,7.67
2023-11-30T14:47:44.556Z,8.13
2023-11-30T14:50:11.062Z,9.27
2023-11-30T14:52:38.102Z,9.03
2023-11-30T14:55:06.208Z,14.23
2023-11-30T14:57:32.484Z,16.00
2023-11-30T15:00:00.586Z,15.10
2023-11-30T15:02:27.043Z,13.17
2023-11-30T15:04:53.345Z,11.20
2023-11-30T15:07:19.759Z,13.27
2023-11-30T15:09:46.819Z,9.77
2023-11-30T15:12:13.091Z,11.13
2023-11-30T15:14:39.367Z,11.07
2023-11-30T15:17:05.707Z,13.33
2023-11-30T15:19:31.920Z,9.93
2023-11-30T15:21:58.277Z,13.43
2023-11-30T15:24:24.563Z,14.00
2023-11-30T15:26:52.735Z,12.57
2023-11-30T15:29:19.011Z,11.67
2023-11-30T15:31:45.387Z,12.47
2023-11-30T15:34:11.733Z,12.67
2023-11-30T15:36:41.347Z,14.10
2023-11-30T15:39:15.249Z,15.07
2023-11-30T15:41:42.478Z,15.27
2023-11-30T15:44:09.516Z,17.10
2023-11-30T15:46:35.882Z,12.07
2023-11-30T15:49:02.205Z,21.87
2023-11-30T15:51:28.751Z,13.07
2023-11-30T15:53:55.157Z,16.50
2023-11-30T15:56:21.462Z,13.73
2023-11-30T15:58:49.043Z,13.07
2023-11-30T16:01:16.018Z,15.60
2023-11-30T16:03:42.317Z,14.20
2023-11-30T16:06:10.593Z,13.03
2023-11-30T16:08:36.851Z,13.17
2023-11-30T16:11:03.937Z,10.23
2023-11-30T16:13:30.292Z,19.97
2023-11-30T16:15:56.638Z,14.57
2023-11-30T16:18:23.593Z,11.97
2023-11-30T16:20:50.241Z,13.17
2023-11-30T16:23:16.444Z,15.73
2023-11-30T16:25:42.949Z,14.13
2023-11-30T16:28:09.611Z,17.47
2023-11-30T16:30:35.841Z,16.23
2023-11-30T16:33:02.767Z,19.83
2023-11-30T16:35:29.874Z,14.60
2023-11-30T16:37:56.339Z,16.03
2023-11-30T16:40:22.854Z,19.20
2023-11-30T16:42:49.133Z,17.23
2023-11-30T16:45:15.552Z,19.70
2023-11-30T16:47:41.951Z,23.70
2023-11-30T16:50:13.708Z,23.40
2023-11-30T16:52:41.427Z,20.50
2023-11-30T16:55:08.255Z,22.97
2023-11-30T16:57:34.644Z,22.57
2023-11-30T17:00:03.204Z,27.23
2023-11-30T17:02:29.506Z,39.17
2023-11-30T17:04:55.886Z,28.53
2023-11-30T17:07:24.148Z,26.17
2023-11-30T17:09:51.191Z,31.97
2023-11-30T17:12:18.351Z,31.83
2023-11-30T17:14:44.738Z,27.33
2023-11-30T17:17:11.223Z,29.63
2023-11-30T17:19:37.458Z,26.53
2023-11-30T17:22:04.086Z,25.87
2023-11-30T17:24:32.629Z,25.80
2023-11-30T17:27:00.160Z,30.80
2023-11-30T17:29:26.562Z,31.00
2023-11-30T17:31:52.917Z,27.93
2023-11-30T17:34:19.408Z,31.63
2023-11-30T17:36:46.741Z,27.67
2023-11-30T17:39:16.420Z,30.50
2023-11-30T17:41:44.309Z,27.93
2023-11-30T17:44:11.321Z,30.43
2023-11-30T17:46:39.122Z,33.67
2023-11-30T17:49:06.063Z,34.30
2023-11-30T17:51:32.510Z,40.43
2023-11-30T17:53:58.840Z,33.37
2023-11-30T17:56:25.113Z,38.80
2023-11-30T17:58:51.607Z,43.10
2023-11-30T18:01:18.528Z,41.70
2023-11-30T18:03:44.876Z,64.60
2023-11-30T18:06:11.495Z,66.60
2023-11-30T18:08:37.918Z,50.80
2023-11-30T18:11:04.435Z,50.90
2023-11-30T18:13:30.961Z,45.10
2023-11-30T18:15:57.981Z,45.93
2023-11-30T18:18:26.192Z,48.63
2023-11-30T18:20:52.513Z,52.47
2023-11-30T18:23:18.784Z,52.63
2023-11-30T18:25:45.243Z,56.80
2023-11-30T18:28:12.050Z,48.57
2023-11-30T18:30:41.318Z,55.47
2023-11-30T18:33:08.323Z,45.27
2023-11-30T18:35:35.438Z,47.00
2023-11-30T18:38:03.770Z,40.83
2023-11-30T18:40:30.601Z,49.37
2023-11-30T18:42:57.373Z,46.13
2023-11-30T18:45:23.789Z,55.60
2023-11-30T18:47:50.196Z,49.30
2023-11-30T18:50:17.176Z,49.67
2023-11-30T18:52:44.264Z,57.07
2023-11-30T18:55:10.658Z,48.47
2023-11-30T18:57:37.058Z,73.87
2023-11-30T19:00:06.101Z,51.97
2023-11-30T19:02:32.486Z,111.87
2023-11-30T19:04:58.835Z,75.87
2023-11-30T19:07:25.181Z,66.17
2023-11-30T19:09:52.562Z,63.20
2023-11-30T19:12:19.130Z,62.80
2023-11-30T19:14:45.692Z,58.70
2023-11-30T19:17:12.084Z,65.20
2023-11-30T19:19:39.230Z,69.20
2023-11-30T19:22:05.988Z,77.23
2023-11-30T19:24:32.538Z,84.83
2023-11-30T19:26:59.484Z,91.83
2023-11-30T19:29:25.961Z,100.30
2023-11-30T19:31:52.323Z,89.57
2023-11-30T19:34:18.819Z,94.80
2023-11-30T19:36:45.793Z,97.03
2023-11-30T19:39:12.026Z,101.87
2023-11-30T19:41:42.099Z,106.17
2023-11-30T19:44:09.142Z,107.13
2023-11-30T19:46:37.136Z,109.53
2023-11-30T19:49:03.667Z,106.00
2023-11-30T19:51:29.860Z,126.10
2023-11-30T19:53:57.295Z,127.17
2023-11-30T19:56:23.701Z,115.07
2023-11-30T19:58:50.172Z,114.60
2023-11-30T20:01:21.226Z,122.00
2023-11-30T20:03:47.688Z,134.10
2023-11-30T20:06:14.255Z,108.57
2023-11-30T20:08:40.712Z,110.93
2023-11-30T20:11:07.916Z,114.53
2023-11-30T20:13:34.106Z,119.17
2023-11-30T20:16:07.112Z,109.03
2023-11-30T20:18:35.627Z,123.47
2023-11-30T20:21:03.107Z,122.60
2023-11-30T20:23:29.354Z,104.53
2023-11-30T20:25:55.664Z,128.87
2023-11-30T20:28:22.012Z,117.10
2023-11-30T20:30:48.555Z,115.80
2023-11-30T20:33:14.977Z,135.10
2023-11-30T20:35:41.940Z,108.70
2023-11-30T20:38:08.181Z,106.13
2023-11-30T20:40:34.507Z,115.43
2023-11-30T20:43:01.628Z,113.63
2023-11-30T20:45:28.055Z,106.57
2023-11-30T20:47:55.208Z,113.10
2023-11-30T20:50:21.589Z,121.97
2023-11-30T20:52:48.401Z,103.73
2023-11-30T20:55:14.911Z,92.37
2023-11-30T20:57:44.862Z,103.53
2023-11-30T21:00:11.999Z,99.77
2023-11-30T21:02:38.395Z,92.50
2023-11-30T21:05:05.713Z,83.27
2023-11-30T21:07:31.980Z,79.57
2023-11-30T21:09:59.011Z,85.73
2023-11-30T21:12:25.575Z,91.10
2023-11-30T21:14:51.821Z,91.30
2023-11-30T21:17:18.374Z,121.53
2023-11-30T21:19:44.671Z,93.40
2023-11-30T21:22:11.213Z,99.23
2023-11-30T21:24:38.606Z,87.17
2023-11-30T21:27:05.676Z,94.17
2023-11-30T21:29:32.017Z,84.37
2023-11-30T21:31:58.440Z,94.47
2023-11-30T21:34:24.968Z,86.50
2023-11-30T21:36:51.389Z,84.10
2023-11-30T21:39:17.716Z,75.27
2023-11-30T21:41:44.249Z,92.20
2023-11-30T21:44:11.138Z,105.70
2023-11-30T21:46:37.528Z,78.27
2023-11-30T21:49:04.152Z,79.37
2023-11-30T21:51:31.142Z,74.57
2023-11-30T21:53:58.192Z,71.27
2023-11-30T21:56:24.561Z,65.90
2023-11-30T21:58:50.976Z,69.53
2023-11-30T22:01:18.426Z,72.33
2023-11-30T22:03:44.852Z,75.37
2023-11-30T22:06:11.433Z,73.60
2023-11-30T22:08:37.744Z,78.73
2023-11-30T22:11:04.495Z,72.57
2023-11-30T22:13:30.816Z,71.27
2023-11-30T22:16:03.885Z,79.90
2023-11-30T22:18:36.736Z,69.83
2023-11-30T22:21:03.387Z,79.40
2023-11-30T22:23:31.328Z,75.60
2023-11-30T22:26:03.729Z,76.37
2023-11-30T22:28:31.144Z,64.50
2023-11-30T22:30:59.021Z,74.83
2023-11-30T22:33:25.398Z,65.67
2023-11-30T22:35:52.466Z,70.63
2023-11-30T22:38:18.732Z,82.03
2023-11-30T22:40:45.052Z,70.40
2023-11-30T22:43:11.396Z,81.47
2023-11-30T22:45:37.943Z,83.10
2023-11-30T22:48:04.332Z,81.53
2023-11-30T22:50:30.607Z,73.67
2023-11-30T22:52:57.772Z,75.27
2023-11-30T22:55:24.207Z,90.80
2023-11-30T22:57:50.574Z,86.60
2023-11-30T23:00:20.503Z,83.57
2023-11-30T23:02:48.219Z,87.57
2023-11-30T23:05:14.865Z,86.97
2023-11-30T23:07:41.161Z,83.13
2023-11-30T23:10:12.390Z,89.30
2023-11-30T23:12:39.468Z,95.30
2023-11-30T23:15:06.722Z,81.13
2023-11-30T23:17:34.431Z,87.70
2023-11-30T23:20:00.667Z,90.07
2023-11-30T23:22:26.868Z,87.83
2023-11-30T23:24:53.267Z,85.00
2023-11-30T23:27:20.622Z,84.67
2023-11-30T23:29:46.900Z,92.33
2023-11-30T23:32:13.188Z,83.90
2023-11-30T23:34:39.429Z,96.63
2023-11-30T23:37:05.648Z,80.47
2023-11-30T23:39:32.003Z,87.53
2023-11-30T23:41:58.265Z,88.70
2023-11-30T23:44:25.232Z,89.20
2023-11-30T23:46:51.546Z,77.97
2023-11-30T23:49:17.858Z,79.77
2023-11-30T23:51:44.262Z,83.60
2023-11-30T23:54:10.642Z,79.63
2023-11-30T23:56:36.879Z,87.87
2023-11-30T23:59:03.208Z,86.87
